This is the latest recevied weather packets stored in our database for station/object OH7GGX-14. If no packets are shown the sender has not sent any weather packets the latest 10 day(s).
| Time | Temp. | Humidity | Pressure | Rain* | Wind** | Luminosity | Snow |
|---|---|---|---|---|---|---|---|
| 1777978893 | 6.67° C | 99% | 1000.6 hPa | 2.03 mm | - | - | - |
| 1777978293 | 6.67° C | 99% | 1000.4 hPa | 2.03 mm | - | - | - |
| 1777977094 | 6.67° C | 99% | 999.9 hPa | 2.03 mm | - | - | - |
| 1777976493 | 7.78° C | 92% | 1000 hPa | 1.52 mm | - | - | - |
| 1777975893 | 8.89° C | 83% | 999.7 hPa | 0.51 mm | - | - | - |
| 1777975293 | 10.56° C | 76% | 999.1 hPa | 0 mm | - | - | - |
| 1777974093 | 11.11° C | 80% | 998 hPa | 0 mm | - | - | - |
| 1777973493 | 11.11° C | 75% | 997.9 hPa | 0 mm | - | - | - |
| 1777972893 | 11.67° C | 74% | 997.9 hPa | 0 mm | - | - | - |
| 1777972293 | 11.67° C | 79% | 998.3 hPa | 0 mm | - | - | - |
| 1777971693 | 11.67° C | 80% | 998.2 hPa | 0 mm | - | - | - |
| 1777971093 | 11.11° C | 82% | 998.4 hPa | 0 mm | - | - | - |
| 1777969893 | 10.56° C | 86% | 999 hPa | 0 mm | - | - | - |
| 1777969293 | 10.56° C | 86% | 999.2 hPa | 0 mm | - | - | - |
| 1777968693 | 10° C | 88% | 999.4 hPa | 0 mm | - | - | - |
| 1777968093 | 10° C | 87% | 999.4 hPa | 0 mm | - | - | - |
| 1777967493 | 9.44° C | 89% | 999.6 hPa | 0 mm | - | - | - |
| 1777966293 | 9.44° C | 95% | 999.8 hPa | 0 mm | - | - | - |
| 1777965693 | 8.89° C | 96% | 1000 hPa | 0 mm | - | - | - |
| 1777965093 | 8.89° C | 97% | 1000.2 hPa | 0 mm | - | - | - |
| 1777964494 | 8.89° C | 95% | 1000.1 hPa | 0 mm | - | - | - |
| 1777963893 | 8.33° C | 99% | 1000.1 hPa | 0 mm | - | - | - |
| 1777962693 | 7.78° C | 99% | 1000.5 hPa | 0 mm | - | - | - |
| 1777962094 | 7.22° C | 99% | 1000.7 hPa | 0 mm | - | - | - |
| 1777961494 | 7.22° C | 99% | 1000.7 hPa | 0 mm | - | - | - |
* Rain latest hour (hover to see other rain measurements)
** Current wind speed in m/s (hover to see current wind gust speed)